Terminal Aerodrome Forecast
Issued by NWS

Home | Current Version | Previous Version | Text Only | Print | Product List | Glossary Off
Versions: 1 2 3 4 5 6 7 8 9 10 11 12 13 14 15

447
FTUS41 KCLE 241734
TAFFDY
TAF
KFDY 241734Z 2418/2518 26010KT 5SM -SHRA VCTS OVC035CB
      TEMPO 2419/2422 VRB20G30KT 2SM -TSRA OVC020CB
     FM242300 20006KT P6SM SCT060 BKN200
     FM251000 23008KT P6SM VCTS BKN035CB OVC080
     FM251400 26010KT P6SM SCT035 BKN100=

USA.gov is the U.S. government's official web portal to all federal, state and local government web resources and services.